Time;durP1;ratioP1;P1;durP2;ratioP2;P2;SDS_P1;SDS_P2;PMS_P1;PMS_P2;Temp;Humidity;BMP_temperature;BMP_pressure;BME280_temperature;BME280_humidity;BME280_pressure;Samples;Min_cycle;Max_cycle;Signal;HPM_P1;HPM_P2
2021/09/30 00:01:15;;;;;;;7.45;5.22;;;;;;;12.70;61.47;94528.84;4977264;28;20117;-70
2021/09/30 00:03:41;;;;;;;5.93;4.93;;;;;;;12.59;61.45;94532.88;4974495;28;20046;-69
2021/09/30 00:06:06;;;;;;;6.82;5.13;;;;;;;12.54;61.81;94533.00;4972053;28;20500;-71
2021/09/30 00:08:32;;;;;;;8.07;5.32;;;;;;;12.63;61.53;94531.16;4972530;28;20113;-72
2021/09/30 00:11:07;;;;;;;5.90;4.70;;;;;;;12.48;62.27;94534.22;4979966;28;20098;-72
2021/09/30 00:35:23;;;;;;;6.20;4.80;;;;;;;12.77;60.05;94513.16;4968284;28;20052;-71
2021/09/30 00:46:20;;;;;;;6.68;4.75;;;;;;;12.85;60.08;94508.97;4965549;28;20092;-69
2021/09/30 02:34:36;;;;;;;9.45;6.15;;;;;;;12.61;59.43;94519.25;4978756;28;20068;-73
2021/09/30 02:59:07;;;;;;;6.05;5.32;;;;;;;12.75;60.44;94539.41;4975085;28;20092;-69
2021/09/30 03:01:34;;;;;;;6.05;4.82;;;;;;;12.56;61.22;94525.47;4978989;28;20551;-69
2021/09/30 03:04:01;;;;;;;6.75;4.85;;;;;;;12.85;60.45;94541.00;4977012;28;20141;-70
2021/09/30 03:06:28;;;;;;;7.82;5.50;;;;;;;12.71;60.80;94540.31;4974445;28;20040;-71
2021/09/30 03:08:57;;;;;;;7.93;5.35;;;;;;;12.43;61.54;94526.34;4978318;28;21978;-70
2021/09/30 03:11:25;;;;;;;7.00;4.88;;;;;;;12.63;61.39;94544.50;4978395;28;20066;-70
2021/09/30 03:13:52;;;;;;;9.60;4.90;;;;;;;12.69;60.90;94553.19;4973450;28;20047;-70
2021/09/30 03:19:50;;;;;;;5.95;4.55;;;;;;;12.79;60.68;94537.69;4978719;28;20743;-69
2021/09/30 03:22:26;;;;;;;7.75;5.47;;;;;;;12.83;60.54;94554.66;4969960;28;20497;-73
2021/09/30 03:24:27;;;;;;;5.18;4.68;;;;;;;12.76;60.96;94548.19;4974369;28;20069;-72
2021/09/30 03:26:53;;;;;;;9.77;5.18;;;;;;;12.76;61.22;94554.28;4974722;28;20098;-70
2021/09/30 03:29:19;;;;;;;6.53;4.75;;;;;;;12.89;60.33;94537.41;4979038;28;20258;-71
2021/09/30 03:31:48;;;;;;;8.20;5.93;;;;;;;12.88;60.38;94543.81;4968892;28;20045;-70
2021/09/30 03:34:15;;;;;;;6.20;4.78;;;;;;;12.85;60.76;94552.47;4980803;28;20530;-71
2021/09/30 03:36:41;;;;;;;10.10;5.18;;;;;;;12.84;60.59;94545.53;4970111;28;20043;-73
2021/09/30 03:39:14;;;;;;;8.68;5.85;;;;;;;12.82;60.50;94537.03;4983254;28;20033;-72
2021/09/30 03:41:42;;;;;;;7.80;6.20;;;;;;;12.77;61.23;94537.19;4973953;28;20111;-70
2021/09/30 03:44:10;;;;;;;9.15;5.63;;;;;;;12.77;60.84;94542.53;4982339;28;20117;-70
2021/09/30 03:46:36;;;;;;;8.98;5.50;;;;;;;12.53;61.27;94515.41;4967264;28;20030;-72
2021/09/30 03:49:08;;;;;;;6.85;4.68;;;;;;;12.69;61.01;94516.59;4971634;28;20288;-70
2021/09/30 03:52:27;;;;;;;9.05;5.88;;;;;;;12.84;61.22;94542.88;4977320;28;20040;-71
2021/09/30 03:59:28;;;;;;;7.55;5.72;;;;;;;12.67;61.72;94545.47;4972869;28;20046;-72
2021/09/30 04:01:58;;;;;;;8.25;6.28;;;;;;;12.52;62.16;94526.41;4974308;28;20038;-70
2021/09/30 04:04:27;;;;;;;9.80;5.93;;;;;;;12.78;61.13;94533.44;4972419;28;20061;-70
2021/09/30 04:06:54;;;;;;;8.90;6.55;;;;;;;12.95;60.60;94534.59;4976417;28;20466;-73
2021/09/30 04:09:26;;;;;;;9.07;6.55;;;;;;;12.40;61.54;94497.63;4972310;28;20030;-71
2021/09/30 04:11:51;;;;;;;8.23;6.45;;;;;;;12.15;63.52;94523.06;4976018;28;20029;-70
2021/09/30 04:14:17;;;;;;;10.77;7.90;;;;;;;12.35;63.86;94545.75;4974383;28;20457;-71
2021/09/30 04:16:47;;;;;;;11.55;8.98;;;;;;;12.46;63.35;94544.41;4970100;28;20115;-71
2021/09/30 04:19:14;;;;;;;9.38;7.32;;;;;;;12.53;63.05;94550.09;4974785;28;20073;-70
2021/09/30 04:21:40;;;;;;;12.00;8.63;;;;;;;12.47;62.87;94543.31;4970368;28;20108;-70
2021/09/30 04:24:06;;;;;;;11.20;8.00;;;;;;;12.32;63.22;94549.06;4953820;28;20557;-71
2021/09/30 04:26:31;;;;;;;12.35;8.45;;;;;;;12.40;63.15;94550.97;4955193;28;20338;-71
2021/09/30 04:28:56;;;;;;;10.80;7.22;;;;;;;12.33;63.45;94543.41;4953920;28;20130;-70
2021/09/30 04:31:23;;;;;;;12.05;7.95;;;;;;;12.48;63.04;94547.56;4956050;28;20146;-69
2021/09/30 04:33:51;;;;;;;12.13;7.95;;;;;;;12.50;62.64;94545.38;4952512;28;20541;-73
2021/09/30 04:36:16;;;;;;;13.82;8.98;;;;;;;12.35;62.69;94537.75;4958604;28;20061;-70
2021/09/30 04:38:45;;;;;;;16.77;9.00;;;;;;;12.27;62.99;94533.94;4957284;28;20181;-69
2021/09/30 04:41:11;;;;;;;12.27;8.27;;;;;;;12.25;64.27;94516.69;4963886;28;20046;-70
2021/09/30 04:43:36;;;;;;;14.43;10.18;;;;;;;12.22;64.24;94546.66;4964013;28;20118;-70
2021/09/30 04:46:02;;;;;;;11.60;8.73;;;;;;;12.06;64.34;94532.09;4964719;28;20034;-72
2021/09/30 04:48:27;;;;;;;17.35;9.77;;;;;;;12.33;63.44;94553.28;4958933;28;20038;-70
2021/09/30 04:50:53;;;;;;;12.05;9.20;;;;;;;12.32;64.02;94555.16;4952769;28;20066;-71
2021/09/30 04:53:18;;;;;;;14.52;9.40;;;;;;;12.33;63.62;94547.94;4952653;28;20046;-70
2021/09/30 04:55:43;;;;;;;13.65;9.57;;;;;;;11.77;65.08;94511.22;4952425;28;20466;-71
2021/09/30 04:58:09;;;;;;;16.55;10.15;;;;;;;12.11;64.54;94542.66;4997282;28;20044;-69
2021/09/30 05:00:34;;;;;;;13.75;9.23;;;;;;;12.26;64.13;94544.94;5040471;28;20046;-71
2021/09/30 05:02:59;;;;;;;13.32;8.90;;;;;;;12.54;63.45;94551.66;4965655;28;20030;-71
2021/09/30 05:05:25;;;;;;;17.40;10.13;;;;;;;12.43;63.57;94559.13;4949899;28;20184;-72
2021/09/30 05:07:50;;;;;;;12.77;9.77;;;;;;;12.17;64.25;94544.91;4969869;28;20041;-73
2021/09/30 05:10:19;;;;;;;11.15;8.57;;;;;;;12.27;64.06;94567.84;4978931;28;20042;-69
2021/09/30 05:12:45;;;;;;;18.02;10.90;;;;;;;12.38;64.05;94558.47;4971338;28;20034;-71
2021/09/30 05:15:10;;;;;;;15.40;10.52;;;;;;;12.40;63.68;94577.66;4977066;28;20065;-71
2021/09/30 05:17:36;;;;;;;12.30;9.45;;;;;;;12.60;62.71;94579.84;4973121;28;20489;-71
2021/09/30 05:20:02;;;;;;;15.18;9.88;;;;;;;12.82;62.21;94584.31;4970558;28;20041;-71
2021/09/30 05:22:27;;;;;;;13.40;8.88;;;;;;;12.81;61.84;94583.50;4975641;28;20465;-72
2021/09/30 05:24:53;;;;;;;14.10;9.30;;;;;;;12.60;62.54;94587.84;4979518;28;20081;-71
2021/09/30 05:27:18;;;;;;;12.77;9.35;;;;;;;12.36;63.58;94593.47;4979824;28;20574;-70
2021/09/30 05:29:44;;;;;;;15.40;10.23;;;;;;;12.61;63.17;94592.09;4982080;28;20034;-71
2021/09/30 05:32:09;;;;;;;13.55;9.57;;;;;;;12.57;62.90;94593.75;4978753;28;20045;-71
2021/09/30 05:34:34;;;;;;;13.73;9.68;;;;;;;12.77;62.26;94592.44;4978061;28;20046;-71
2021/09/30 05:37:00;;;;;;;12.13;9.15;;;;;;;12.59;62.24;94591.59;4979832;28;20040;-70
2021/09/30 05:39:25;;;;;;;15.40;11.20;;;;;;;12.54;62.90;94599.69;4984207;28;20038;-71
2021/09/30 05:41:53;;;;;;;14.90;9.43;;;;;;;12.76;62.03;94602.34;4979648;28;20035;-73
2021/09/30 05:44:23;;;;;;;16.13;10.85;;;;;;;12.37;62.65;94563.03;4977503;28;20496;-72
2021/09/30 05:46:53;;;;;;;14.10;8.93;;;;;;;12.45;62.72;94578.31;4975308;28;20034;-70
2021/09/30 05:49:20;;;;;;;14.82;10.07;;;;;;;12.71;62.09;94586.47;4980057;28;20129;-72
2021/09/30 05:51:45;;;;;;;15.75;11.32;;;;;;;12.91;61.83;94606.47;4967283;28;20605;-70
2021/09/30 05:54:10;;;;;;;19.15;11.05;;;;;;;12.97;61.08;94591.91;4973173;28;20595;-70
2021/09/30 05:56:36;;;;;;;12.10;8.68;;;;;;;12.93;61.44;94600.84;4977294;28;20034;-74
2021/09/30 05:59:01;;;;;;;16.70;10.05;;;;;;;12.63;62.10;94581.88;4980493;28;20463;-72
2021/09/30 06:14:43;;;;;;;13.85;10.18;;;;;;;12.48;63.27;94606.25;4984512;28;20046;-70
2021/09/30 06:17:08;;;;;;;21.25;11.82;;;;;;;12.62;63.11;94609.66;4976914;28;20133;-71
2021/09/30 06:19:34;;;;;;;15.57;10.98;;;;;;;12.67;62.90;94606.06;4972385;28;20038;-72
2021/09/30 06:22:04;;;;;;;15.65;9.95;;;;;;;12.66;62.95;94613.31;4968550;28;20045;-71
2021/09/30 06:24:30;;;;;;;12.82;9.20;;;;;;;12.68;62.55;94604.97;4980302;28;20053;-71
2021/09/30 06:26:55;;;;;;;14.00;9.32;;;;;;;12.50;63.79;94616.63;4978235;28;20046;-70
2021/09/30 06:29:21;;;;;;;21.58;9.75;;;;;;;12.80;62.67;94611.34;4975101;28;20034;-72
2021/09/30 06:31:46;;;;;;;14.27;9.73;;;;;;;12.67;63.07;94620.19;4978985;28;20038;-72
2021/09/30 06:34:12;;;;;;;15.30;8.60;;;;;;;12.87;62.36;94614.31;4975548;28;20043;-72
2021/09/30 06:36:38;;;;;;;10.77;8.23;;;;;;;12.64;61.95;94601.34;4975288;28;20038;-71
2021/09/30 06:39:04;;;;;;;14.02;8.95;;;;;;;12.78;61.94;94594.81;4983187;28;20079;-71
2021/09/30 06:41:29;;;;;;;11.75;8.30;;;;;;;12.92;61.72;94604.59;4981297;28;20513;-70
2021/09/30 06:43:55;;;;;;;13.35;8.80;;;;;;;13.12;61.30;94615.53;4974867;28;20473;-71
2021/09/30 06:46:20;;;;;;;10.40;8.35;;;;;;;13.27;60.58;94614.31;4974795;28;20059;-72
2021/09/30 06:48:46;;;;;;;11.88;7.40;;;;;;;12.81;60.97;94614.78;4977990;28;20040;-73
2021/09/30 06:51:11;;;;;;;11.93;8.00;;;;;;;12.89;60.67;94614.81;4994733;28;20038;-70
2021/09/30 06:53:37;;;;;;;9.65;6.50;;;;;;;13.01;60.55;94608.88;4971425;28;20402;-72
2021/09/30 06:56:05;;;;;;;8.05;6.28;;;;;;;12.87;60.04;94600.19;4983359;28;20038;-72
2021/09/30 06:58:31;;;;;;;10.10;7.60;;;;;;;12.63;60.48;94600.56;4972860;28;20638;-70
2021/09/30 07:00:57;;;;;;;9.90;7.20;;;;;;;12.82;60.73;94617.13;4975021;28;20417;-72
2021/09/30 07:03:23;;;;;;;12.02;7.28;;;;;;;13.09;59.88;94620.72;4974578;28;20427;-72
2021/09/30 07:05:49;;;;;;;13.13;7.68;;;;;;;13.31;59.88;94626.75;4973522;28;20132;-72
2021/09/30 07:08:14;;;;;;;10.45;7.03;;;;;;;12.95;59.34;94631.50;4975893;28;20441;-70
2021/09/30 07:10:40;;;;;;;12.15;7.65;;;;;;;13.37;59.12;94610.56;4974090;28;20034;-71
2021/09/30 07:13:06;;;;;;;12.23;7.50;;;;;;;13.42;57.96;94613.88;4979818;28;20062;-70
2021/09/30 07:15:31;;;;;;;10.07;7.63;;;;;;;13.45;58.10;94615.94;4983553;28;20039;-71
2021/09/30 07:17:56;;;;;;;10.63;7.55;;;;;;;13.45;57.73;94637.31;4972545;28;20569;-71
2021/09/30 07:20:22;;;;;;;11.32;7.75;;;;;;;13.38;58.40;94634.31;4981121;28;20034;-71
2021/09/30 07:22:48;;;;;;;10.45;7.45;;;;;;;13.74;57.66;94632.19;4974625;28;20118;-71
2021/09/30 07:25:13;;;;;;;11.35;7.57;;;;;;;13.61;57.61;94632.34;4974138;28;20047;-72
2021/09/30 07:27:45;;;;;;;11.65;8.70;;;;;;;13.40;57.41;94637.44;4980364;28;20077;-74
2021/09/30 07:30:11;;;;;;;11.98;9.07;;;;;;;13.51;57.50;94630.72;4986979;28;20022;-70
2021/09/30 07:32:36;;;;;;;12.57;8.40;;;;;;;13.16;58.35;94637.06;4974949;28;20230;-74
2021/09/30 07:35:02;;;;;;;12.38;8.88;;;;;;;13.27;58.08;94639.16;4978961;28;20049;-71
2021/09/30 07:37:27;;;;;;;11.82;7.82;;;;;;;13.23;58.40;94632.84;4975173;28;20046;-70
2021/09/30 07:39:52;;;;;;;9.05;6.93;;;;;;;13.11;58.12;94640.66;4973214;28;20039;-71
2021/09/30 07:42:18;;;;;;;11.52;8.00;;;;;;;13.24;57.88;94636.31;4973812;28;20888;-70
2021/09/30 07:44:44;;;;;;;10.23;7.75;;;;;;;13.45;57.10;94623.94;4977586;28;20018;-71
2021/09/30 07:47:09;;;;;;;10.77;7.85;;;;;;;13.32;57.21;94627.53;4975729;28;20042;-71
2021/09/30 07:49:35;;;;;;;12.95;8.98;;;;;;;13.32;57.81;94616.84;4975714;28;20851;-70
2021/09/30 07:52:01;;;;;;;12.13;9.40;;;;;;;12.92;58.51;94620.63;4978753;28;20043;-70
2021/09/30 07:54:26;;;;;;;11.10;8.75;;;;;;;13.07;58.13;94617.53;4977987;28;20035;-72
2021/09/30 07:56:52;;;;;;;14.25;9.50;;;;;;;13.11;58.14;94640.66;4972522;28;20034;-71
2021/09/30 07:59:17;;;;;;;9.68;8.15;;;;;;;12.92;57.61;94634.75;4962588;28;20042;-73
2021/09/30 08:01:43;;;;;;;13.90;8.30;;;;;;;13.09;57.23;94634.84;4976279;28;20057;-73
2021/09/30 08:04:08;;;;;;;14.27;9.13;;;;;;;13.05;57.02;94644.59;4984473;28;20708;-73
2021/09/30 08:06:38;;;;;;;11.90;8.25;;;;;;;12.94;57.53;94613.91;4976978;28;20038;-79
2021/09/30 08:09:04;;;;;;;10.82;8.15;;;;;;;13.11;56.27;94629.19;4969041;28;20516;-79
2021/09/30 08:11:29;;;;;;;9.73;7.07;;;;;;;13.29;56.34;94636.97;4974575;28;20926;-80
2021/09/30 08:13:55;;;;;;;9.38;6.63;;;;;;;13.28;56.48;94635.38;4977007;28;20382;-79
2021/09/30 08:16:23;;;;;;;9.27;6.82;;;;;;;13.35;56.18;94624.22;5002859;28;20083;-79
2021/09/30 08:18:49;;;;;;;8.45;6.45;;;;;;;13.60;55.40;94636.09;5029611;28;20069;-79
2021/09/30 08:21:17;;;;;;;10.35;7.88;;;;;;;13.79;54.50;94627.81;4973832;28;20065;-79
2021/09/30 08:23:43;;;;;;;8.73;6.03;;;;;;;13.60;54.36;94626.22;4958500;28;20038;-77
2021/09/30 08:26:09;;;;;;;9.77;6.30;;;;;;;13.66;54.08;94633.00;4981130;28;20050;-77
2021/09/30 08:28:37;;;;;;;8.82;6.25;;;;;;;13.78;54.07;94643.09;4975912;28;20527;-78
2021/09/30 08:31:06;;;;;;;7.10;5.70;;;;;;;13.46;53.52;94630.88;4975414;28;20053;-80
2021/09/30 08:33:37;;;;;;;7.57;5.80;;;;;;;13.62;53.21;94631.25;4977889;28;20180;-77
2021/09/30 08:36:03;;;;;;;9.00;5.93;;;;;;;13.66;53.03;94619.63;4972779;28;20027;-77
2021/09/30 08:38:28;;;;;;;7.78;6.13;;;;;;;13.70;53.05;94628.59;4980917;28;20035;-78
2021/09/30 08:40:54;;;;;;;9.02;6.47;;;;;;;14.01;53.06;94630.34;4965821;28;20674;-79
2021/09/30 08:43:19;;;;;;;7.93;6.30;;;;;;;14.12;52.70;94643.09;4958487;28;20042;-80
2021/09/30 08:45:44;;;;;;;6.32;5.70;;;;;;;14.08;51.73;94642.13;4953959;28;20741;-78
2021/09/30 08:48:10;;;;;;;9.77;7.20;;;;;;;14.22;52.60;94633.19;4959937;28;20030;-73
2021/09/30 08:50:40;;;;;;;8.20;6.20;;;;;;;14.45;51.56;94643.41;4955535;28;20038;-76
2021/09/30 08:53:09;;;;;;;9.43;5.78;;;;;;;14.72;51.18;94633.44;4963633;28;20126;-77
2021/09/30 08:55:35;;;;;;;8.25;6.72;;;;;;;14.42;50.64;94592.41;5017366;28;20567;-77
2021/09/30 08:58:03;;;;;;;8.38;6.15;;;;;;;14.76;50.47;94639.75;5025481;28;20078;-76
2021/09/30 09:00:30;;;;;;;8.07;5.45;;;;;;;14.59;50.94;94645.91;4958188;28;20929;-78
2021/09/30 09:02:56;;;;;;;8.27;6.20;;;;;;;14.78;51.84;94641.00;4965905;28;20027;-78
2021/09/30 09:05:23;;;;;;;11.30;6.97;;;;;;;15.00;51.84;94640.00;4962119;28;20041;-78
2021/09/30 09:07:59;;;;;;;8.57;6.28;;;;;;;15.29;50.42;94634.69;4963305;28;20308;-77
2021/09/30 09:10:29;;;;;;;11.27;7.47;;;;;;;15.43;50.60;94637.91;4970703;28;20047;-76
2021/09/30 09:13:03;;;;;;;10.55;6.63;;;;;;;15.32;50.28;94638.59;4981627;28;20093;-77
2021/09/30 09:15:42;;;;;;;8.50;6.13;;;;;;;15.03;50.64;94640.13;4980843;28;20039;-77
2021/09/30 09:18:27;;;;;;;8.43;6.72;;;;;;;15.48;50.35;94638.88;4980550;28;20311;-75
2021/09/30 09:21:09;;;;;;;11.43;6.80;;;;;;;15.12;50.17;94637.41;4980774;28;20319;-78
2021/09/30 09:24:02;;;;;;;7.85;6.38;;;;;;;15.11;49.99;94635.84;4984698;28;20055;-77
2021/09/30 09:26:29;;;;;;;9.60;7.15;;;;;;;15.37;50.18;94636.53;4985541;28;20069;-77
2021/09/30 09:29:13;;;;;;;14.23;7.57;;;;;;;15.57;49.56;94632.34;4987265;28;20067;-75
2021/09/30 09:31:46;;;;;;;10.02;7.07;;;;;;;15.61;49.76;94614.50;4983907;28;20038;-77
2021/09/30 09:34:19;;;;;;;9.43;6.65;;;;;;;15.24;49.96;94640.22;4984357;28;20042;-78
2021/09/30 09:36:49;;;;;;;8.63;6.10;;;;;;;15.51;49.31;94614.09;4984381;28;20049;-77
2021/09/30 09:39:14;;;;;;;11.13;8.00;;;;;;;15.56;49.73;94624.63;4986927;28;20750;-78
2021/09/30 09:41:40;;;;;;;9.02;7.68;;;;;;;15.73;49.61;94619.16;4985983;28;20042;-78
2021/09/30 09:44:06;;;;;;;8.90;7.20;;;;;;;15.75;48.62;94623.06;4986405;28;20048;-77
2021/09/30 09:46:36;;;;;;;11.80;7.88;;;;;;;16.03;48.42;94644.06;4983045;28;20060;-77
2021/09/30 09:49:10;;;;;;;10.88;8.23;;;;;;;16.23;48.56;94633.28;4986293;28;20034;-78
2021/09/30 09:51:47;;;;;;;8.60;6.53;;;;;;;16.02;48.15;94637.91;4983652;28;20042;-77
2021/09/30 09:54:23;;;;;;;10.63;6.82;;;;;;;16.04;47.94;94640.22;4942172;28;20125;-79
2021/09/30 09:56:51;;;;;;;7.85;6.60;;;;;;;16.38;47.74;94636.53;4977680;28;20060;-74
2021/09/30 09:59:40;;;;;;;7.15;6.32;;;;;;;16.39;46.94;94630.03;4980559;28;20042;-78
2021/09/30 10:02:06;;;;;;;7.97;5.70;;;;;;;15.99;47.58;94635.09;4980027;28;20083;-77
2021/09/30 10:04:31;;;;;;;8.43;4.70;;;;;;;16.10;46.61;94645.09;4981567;28;20318;-79
2021/09/30 10:06:57;;;;;;;11.15;8.55;;;;;;;16.23;47.47;94635.22;4977560;28;20076;-77
2021/09/30 10:09:23;;;;;;;7.55;5.40;;;;;;;16.26;46.27;94638.03;4986021;28;20026;-77
2021/09/30 10:11:48;;;;;;;5.95;5.00;;;;;;;15.80;47.58;94635.50;4976315;28;20042;-76
2021/09/30 10:14:15;;;;;;;6.38;4.32;;;;;;;15.81;47.49;94632.50;4974193;28;20100;-77
2021/09/30 10:16:47;;;;;;;7.03;5.13;;;;;;;16.15;47.70;94631.47;4973724;28;21137;-77
2021/09/30 10:19:12;;;;;;;5.35;4.43;;;;;;;16.11;47.18;94637.81;4980334;28;20107;-78
2021/09/30 10:21:39;;;;;;;7.53;5.25;;;;;;;15.88;47.23;94632.00;4965838;28;20047;-78
2021/09/30 10:24:16;;;;;;;5.53;4.97;;;;;;;16.00;47.51;94628.59;4974618;28;20034;-78
2021/09/30 10:26:46;;;;;;;7.32;5.22;;;;;;;16.06;47.08;94636.13;4971529;28;20066;-73
2021/09/30 10:29:34;;;;;;;5.70;4.47;;;;;;;16.10;47.36;94634.34;4983680;28;20034;-77
2021/09/30 10:32:01;;;;;;;6.57;4.97;;;;;;;16.13;47.35;94603.41;4976374;28;20130;-76
2021/09/30 10:34:32;;;;;;;5.85;5.07;;;;;;;16.52;47.06;94629.00;4975293;28;20042;-77
2021/09/30 10:37:21;;;;;;;7.50;4.82;;;;;;;16.21;46.72;94630.16;4974750;28;20430;-77
2021/09/30 10:40:19;;;;;;;5.78;4.70;;;;;;;15.75;47.35;94638.38;4969329;28;20067;-74
2021/09/30 10:42:58;;;;;;;6.68;4.90;;;;;;;15.65;47.88;94630.72;4980190;28;20082;-76
2021/09/30 10:45:26;;;;;;;4.80;3.65;;;;;;;15.46;47.96;94637.28;4970461;28;20034;-77
2021/09/30 10:47:53;;;;;;;5.85;4.47;;;;;;;15.39;48.53;94642.34;4967974;28;20214;-77
2021/09/30 10:50:19;;;;;;;6.80;4.40;;;;;;;15.45;48.01;94637.59;4969525;28;20119;-78
2021/09/30 10:52:53;;;;;;;7.15;4.32;;;;;;;15.25;48.49;94625.72;4978620;28;20077;-78
2021/09/30 10:55:22;;;;;;;7.30;4.57;;;;;;;15.33;48.59;94638.28;4968497;28;20070;-75
2021/09/30 10:57:49;;;;;;;5.22;3.97;;;;;;;15.08;48.84;94615.06;4972757;28;20055;-75
2021/09/30 11:00:18;;;;;;;4.53;4.05;;;;;;;15.29;48.69;94642.72;4968139;28;20034;-77
2021/09/30 11:03:02;;;;;;;5.88;3.58;;;;;;;15.18;48.46;94633.47;4976025;28;20098;-77
2021/09/30 11:05:32;;;;;;;8.15;3.67;;;;;;;15.16;48.94;94638.34;4973080;28;20142;-77
2021/09/30 11:08:19;;;;;;;5.13;3.50;;;;;;;15.28;49.06;94638.47;4979752;28;20498;-77
2021/09/30 11:11:04;;;;;;;5.50;4.03;;;;;;;15.47;48.54;94643.44;4983052;28;21140;-79
2021/09/30 11:13:31;;;;;;;4.50;3.60;;;;;;;15.40;48.13;94637.78;4972188;28;20053;-71
2021/09/30 11:16:20;;;;;;;3.53;3.20;;;;;;;15.74;47.63;94637.59;4989723;28;20058;-77
2021/09/30 11:18:55;;;;;;;4.55;3.60;;;;;;;15.95;47.26;94634.16;4973302;28;20046;-76
2021/09/30 11:21:33;;;;;;;5.55;3.92;;;;;;;15.94;47.07;94630.69;4983384;28;20390;-76
2021/09/30 11:24:02;;;;;;;4.85;3.75;;;;;;;15.74;47.18;94634.16;4988361;28;20023;-75
2021/09/30 11:26:30;;;;;;;5.03;3.25;;;;;;;15.41;47.41;94618.69;4979889;28;20049;-77
2021/09/30 11:29:21;;;;;;;4.20;3.80;;;;;;;15.95;47.36;94637.63;4963740;28;20113;-78
2021/09/30 11:32:08;;;;;;;7.20;3.53;;;;;;;16.02;46.94;94634.44;4965574;28;20801;-77
2021/09/30 11:34:36;;;;;;;4.55;4.15;;;;;;;16.10;46.56;94630.88;4974275;28;20048;-79
2021/09/30 11:37:20;;;;;;;6.53;3.53;;;;;;;16.12;46.39;94632.13;4973570;28;20049;-77
2021/09/30 11:39:49;;;;;;;5.22;4.72;;;;;;;16.19;46.39;94627.00;4974750;28;20175;-72
2021/09/30 11:42:16;;;;;;;6.22;4.30;;;;;;;16.33;45.81;94628.69;4972029;28;20033;-77
2021/09/30 11:44:58;;;;;;;4.80;3.63;;;;;;;16.26;45.58;94627.28;4974607;28;20110;-76
2021/09/30 11:47:24;;;;;;;4.20;3.78;;;;;;;16.57;46.31;94618.81;4979116;28;20033;-78
2021/09/30 11:49:50;;;;;;;5.93;4.32;;;;;;;16.33;45.61;94619.50;4969043;28;20053;-78
2021/09/30 11:52:16;;;;;;;5.22;3.30;;;;;;;16.64;45.44;94626.31;4974423;28;20062;-76
2021/09/30 11:54:42;;;;;;;4.20;3.80;;;;;;;16.68;45.25;94624.53;4975314;28;20520;-78
2021/09/30 11:57:17;;;;;;;4.57;3.47;;;;;;;16.80;44.96;94616.53;4974523;28;20038;-78
2021/09/30 11:59:43;;;;;;;4.68;3.70;;;;;;;16.84;44.85;94614.75;4978778;28;20500;-78
2021/09/30 12:02:08;;;;;;;4.25;3.67;;;;;;;16.67;44.83;94625.69;4974428;28;20042;-77
2021/09/30 12:04:46;;;;;;;3.90;3.00;;;;;;;16.52;44.74;94627.09;4977723;28;20601;-77
2021/09/30 12:07:30;;;;;;;4.18;3.30;;;;;;;16.74;44.46;94628.59;4972879;28;20130;-72
2021/09/30 12:09:58;;;;;;;4.93;4.00;;;;;;;16.63;44.57;94608.63;4974432;28;20046;-77
2021/09/30 12:12:32;;;;;;;4.90;3.58;;;;;;;16.51;46.14;94627.41;4977219;28;20556;-78
2021/09/30 12:14:58;;;;;;;3.60;3.25;;;;;;;16.30;46.59;94628.22;4975025;28;20615;-78
2021/09/30 12:17:29;;;;;;;3.80;3.30;;;;;;;16.39;47.14;94621.97;4979426;28;20652;-77
2021/09/30 12:19:55;;;;;;;4.47;3.92;;;;;;;16.30;46.92;94606.75;4975488;28;20115;-78
2021/09/30 12:22:23;;;;;;;4.70;4.00;;;;;;;15.76;48.65;94624.66;4967828;28;20589;-77
2021/09/30 12:24:53;;;;;;;6.75;3.33;;;;;;;16.09;48.15;94634.66;4967157;28;20054;-74
2021/09/30 12:27:20;;;;;;;7.03;3.97;;;;;;;15.97;48.57;94627.34;4968676;28;20022;-77
2021/09/30 12:29:48;;;;;;;5.35;3.80;;;;;;;16.17;47.63;94629.25;4968710;28;20619;-78
2021/09/30 12:32:17;;;;;;;5.22;3.70;;;;;;;15.89;47.75;94628.97;4971053;28;20146;-76
2021/09/30 12:35:01;;;;;;;4.50;3.30;;;;;;;15.53;48.53;94614.56;4969954;28;20121;-76
2021/09/30 12:37:28;;;;;;;9.23;3.88;;;;;;;15.43;48.53;94616.47;4972353;28;20042;-78
2021/09/30 12:40:03;;;;;;;5.68;4.20;;;;;;;15.64;47.94;94619.22;4968953;28;20186;-76
2021/09/30 12:42:29;;;;;;;6.13;4.38;;;;;;;15.59;48.59;94606.00;4972498;28;20047;-77
2021/09/30 12:44:56;;;;;;;6.40;3.95;;;;;;;15.84;47.98;94621.13;4971395;28;20022;-76
2021/09/30 12:47:33;;;;;;;5.88;4.97;;;;;;;15.20;48.85;94622.44;4973870;28;20510;-78
2021/09/30 12:50:16;;;;;;;7.22;4.60;;;;;;;15.44;49.17;94617.28;4972026;28;20046;-78
2021/09/30 12:52:44;;;;;;;6.75;4.80;;;;;;;15.49;49.10;94625.16;4974921;28;20076;-75
2021/09/30 12:55:22;;;;;;;8.50;4.68;;;;;;;15.73;48.83;94624.53;4970620;28;20047;-77
2021/09/30 12:57:48;;;;;;;6.75;4.53;;;;;;;15.65;48.99;94622.66;4973664;28;20053;-77
2021/09/30 13:00:17;;;;;;;8.63;5.38;;;;;;;15.63;49.02;94624.91;4968475;28;21620;-76
2021/09/30 13:02:44;;;;;;;5.78;5.13;;;;;;;15.31;49.79;94607.53;5060609;28;20756;-77
2021/09/30 13:05:10;;;;;;;7.40;5.00;;;;;;;15.16;49.91;94624.16;4988048;28;20141;-77
2021/09/30 13:07:44;;;;;;;7.65;4.63;;;;;;;14.85;50.25;94621.75;4957558;28;20058;-77
2021/09/30 13:10:11;;;;;;;8.32;5.60;;;;;;;14.91;50.79;94628.53;4965207;28;20047;-77
2021/09/30 13:12:58;;;;;;;7.47;5.30;;;;;;;14.74;51.12;94628.56;4944896;28;20031;-73
2021/09/30 13:15:34;;;;;;;10.10;4.00;;;;;;;14.35;51.99;94630.34;4961519;28;20728;-78
2021/09/30 13:18:02;;;;;;;5.90;4.38;;;;;;;14.30;52.30;94627.81;4968039;28;20043;-72
2021/09/30 13:20:28;;;;;;;6.47;5.22;;;;;;;14.25;52.23;94624.50;4987411;28;20046;-78
2021/09/30 13:22:53;;;;;;;4.78;3.88;;;;;;;14.15;52.91;94620.28;4969738;28;20593;-77
2021/09/30 13:25:27;;;;;;;5.15;4.13;;;;;;;14.46;51.93;94630.81;4974154;28;20196;-76
2021/09/30 13:27:53;;;;;;;6.15;4.55;;;;;;;14.54;52.25;94633.47;4975020;28;20140;-72
2021/09/30 13:30:25;;;;;;;5.43;4.43;;;;;;;14.72;51.75;94631.56;4973807;28;20029;-77
2021/09/30 13:32:52;;;;;;;7.85;4.82;;;;;;;14.98;51.08;94626.91;4972167;28;20022;-78
2021/09/30 13:35:18;;;;;;;6.78;4.28;;;;;;;15.09;51.10;94631.91;4961538;28;20612;-77
2021/09/30 13:37:44;;;;;;;6.88;4.82;;;;;;;15.41;50.01;94626.72;4967647;28;20050;-78
2021/09/30 13:40:10;;;;;;;7.47;3.67;;;;;;;15.14;50.12;94600.38;4973180;28;20535;-76
2021/09/30 13:42:38;;;;;;;5.22;3.78;;;;;;;15.07;50.61;94624.19;4993545;28;20050;-73
2021/09/30 13:45:07;;;;;;;4.50;3.17;;;;;;;15.09;50.82;94616.63;4988586;28;20134;-76
2021/09/30 13:47:37;;;;;;;4.55;3.22;;;;;;;14.95;51.04;94618.75;4957093;28;20127;-72
2021/09/30 13:50:06;;;;;;;5.78;2.95;;;;;;;14.92;50.69;94598.72;4977846;28;20043;-75
2021/09/30 13:52:31;;;;;;;4.53;3.35;;;;;;;15.10;50.70;94617.41;4974672;28;20031;-77
2021/09/30 13:54:57;;;;;;;4.40;2.80;;;;;;;15.32;50.29;94615.25;4961060;28;20058;-77
2021/09/30 13:57:23;;;;;;;5.00;3.03;;;;;;;15.34;50.00;94606.91;4952261;28;20026;-75
2021/09/30 13:59:49;;;;;;;3.63;2.75;;;;;;;15.48;49.74;94604.03;4957980;28;20039;-77
2021/09/30 14:02:14;;;;;;;4.90;3.20;;;;;;;15.63;49.43;94606.13;4958324;28;20070;-76
2021/09/30 14:04:39;;;;;;;4.93;2.60;;;;;;;15.65;49.07;94601.22;4974337;28;20686;-76
2021/09/30 14:07:10;;;;;;;5.85;3.08;;;;;;;15.70;48.88;94603.72;4980391;28;20047;-77
2021/09/30 14:09:36;;;;;;;5.05;2.22;;;;;;;15.71;48.98;94610.66;4979242;28;20157;-72
2021/09/30 14:12:04;;;;;;;3.83;3.08;;;;;;;15.78;48.67;94595.63;4973991;28;20088;-77
2021/09/30 14:14:29;;;;;;;6.53;3.60;;;;;;;16.09;47.93;94605.94;4964622;28;20090;-77
2021/09/30 14:16:55;;;;;;;4.68;3.58;;;;;;;16.11;47.88;94608.31;4974555;28;20141;-76
2021/09/30 14:19:25;;;;;;;6.18;3.85;;;;;;;16.03;47.96;94611.84;4973863;28;20046;-77
2021/09/30 14:21:50;;;;;;;4.43;3.60;;;;;;;15.97;47.61;94597.84;4969357;28;20808;-76
2021/09/30 14:24:16;;;;;;;5.85;3.65;;;;;;;16.16;47.26;94611.56;4976000;28;20037;-77
2021/09/30 14:26:41;;;;;;;4.43;3.55;;;;;;;16.23;47.40;94611.81;4979088;28;20355;-77
2021/09/30 14:29:07;;;;;;;4.85;3.53;;;;;;;16.22;47.27;94594.16;4974233;28;20038;-76
2021/09/30 14:31:32;;;;;;;4.28;3.10;;;;;;;16.45;47.29;94607.25;4965235;28;20700;-77
2021/09/30 14:33:58;;;;;;;3.92;3.15;;;;;;;16.36;47.45;94609.22;4974577;28;20068;-78
2021/09/30 14:36:23;;;;;;;4.95;3.28;;;;;;;16.29;47.07;94599.78;4971185;28;20457;-76